createdAt,value
2023-06-10T00:00:46.437Z,93.10
2023-06-10T00:03:14.170Z,93.20
2023-06-10T00:05:42.394Z,93.00
2023-06-10T00:08:09.897Z,93.30
2023-06-10T00:10:38.205Z,93.10
2023-06-10T00:13:05.971Z,93.10
2023-06-10T00:15:33.309Z,93.20
2023-06-10T00:18:02.371Z,93.40
2023-06-10T00:20:30.512Z,93.50
2023-06-10T00:23:00.508Z,93.60
2023-06-10T00:25:27.973Z,93.80
2023-06-10T00:27:55.943Z,94.10
2023-06-10T00:30:23.351Z,94.60
2023-06-10T00:32:50.830Z,94.40
2023-06-10T00:35:18.330Z,94.50
2023-06-10T00:37:46.438Z,94.40
2023-06-10T00:40:14.078Z,94.40
2023-06-10T00:42:41.545Z,94.50
2023-06-10T00:45:09.970Z,94.70
2023-06-10T00:47:37.715Z,94.80
2023-06-10T00:50:05.614Z,94.90
2023-06-10T00:52:33.149Z,95.10
2023-06-10T00:55:00.640Z,95.30
2023-06-10T00:57:28.278Z,95.60
2023-06-10T00:59:55.686Z,95.90
2023-06-10T01:02:23.186Z,96.00
2023-06-10T01:04:50.734Z,96.20
2023-06-10T01:07:29.900Z,96.50
2023-06-10T01:10:03.966Z,96.80
2023-06-10T01:12:42.556Z,96.80
2023-06-10T01:15:11.651Z,97.00
2023-06-10T01:18:00.131Z,97.50
2023-06-10T01:20:28.242Z,97.70
2023-06-10T01:22:58.904Z,98.10
2023-06-10T01:25:30.327Z,98.40
2023-06-10T01:28:21.260Z,98.40
2023-06-10T01:31:09.743Z,98.80
2023-06-10T01:33:39.017Z,99.20
2023-06-10T01:36:06.768Z,99.00
2023-06-10T01:38:37.826Z,99.10
2023-06-10T01:41:05.312Z,99.30
2023-06-10T01:43:35.767Z,99.80
2023-06-10T01:46:03.162Z,99.90
2023-06-10T01:48:31.178Z,99.90
2023-06-10T01:50:58.612Z,99.90
2023-06-10T01:53:26.093Z,99.90
2023-06-10T01:55:54.854Z,99.90
2023-06-10T01:58:22.201Z,99.90
2023-06-10T02:00:49.666Z,99.90
2023-06-10T02:03:17.222Z,99.90
2023-06-10T02:05:44.991Z,99.90
2023-06-10T02:08:12.351Z,99.90
2023-06-10T02:10:39.779Z,99.90
2023-06-10T02:13:07.297Z,99.90
2023-06-10T02:15:35.014Z,99.90
2023-06-10T02:18:02.399Z,99.90
2023-06-10T02:20:29.785Z,99.90
2023-06-10T02:22:58.105Z,99.90
2023-06-10T02:25:25.483Z,99.90
2023-06-10T02:27:52.878Z,99.90
2023-06-10T02:30:20.337Z,99.90
2023-06-10T02:32:49.326Z,99.90
2023-06-10T02:35:18.897Z,99.90
2023-06-10T02:37:46.313Z,99.90
2023-06-10T02:40:13.841Z,99.90
2023-06-10T02:42:41.279Z,99.90
2023-06-10T02:45:09.949Z,99.90
2023-06-10T02:47:43.440Z,99.90
2023-06-10T02:50:12.877Z,99.90
2023-06-10T02:52:49.975Z,99.90
2023-06-10T02:55:17.430Z,99.90
2023-06-10T02:57:50.432Z,99.90
2023-06-10T03:00:22.679Z,99.90
2023-06-10T03:02:50.877Z,99.90
2023-06-10T03:05:23.413Z,99.90
2023-06-10T03:07:52.701Z,99.90
2023-06-10T03:10:20.696Z,99.90
2023-06-10T03:12:48.087Z,99.90
2023-06-10T03:15:16.897Z,99.90
2023-06-10T03:17:44.474Z,99.90
2023-06-10T03:20:12.549Z,99.90
2023-06-10T03:22:42.016Z,99.90
2023-06-10T03:25:15.336Z,99.90
2023-06-10T03:27:45.212Z,99.90
2023-06-10T03:30:14.668Z,99.90
2023-06-10T03:32:43.238Z,99.90
2023-06-10T03:35:13.172Z,99.90
2023-06-10T03:37:40.816Z,99.90
2023-06-10T03:40:11.426Z,99.90
2023-06-10T03:42:41.720Z,99.90
2023-06-10T03:45:10.734Z,99.90
2023-06-10T03:47:38.781Z,99.90
2023-06-10T03:50:10.001Z,99.90
2023-06-10T03:52:39.048Z,99.90
2023-06-10T03:55:08.269Z,99.90
2023-06-10T03:57:36.233Z,99.90
2023-06-10T04:00:09.530Z,99.90
2023-06-10T04:02:50.522Z,99.90
2023-06-10T04:05:26.920Z,99.90
2023-06-10T04:07:54.566Z,99.90
2023-06-10T04:10:22.216Z,99.90
2023-06-10T04:12:49.692Z,99.90
2023-06-10T04:15:17.199Z,99.90
2023-06-10T04:17:45.127Z,99.90
2023-06-10T04:20:13.894Z,99.90
2023-06-10T04:22:45.346Z,99.90
2023-06-10T04:25:13.213Z,99.90
2023-06-10T04:27:43.107Z,99.90
2023-06-10T04:30:12.152Z,99.90
2023-06-10T04:32:40.134Z,99.90
2023-06-10T04:35:13.802Z,99.90
2023-06-10T04:37:42.077Z,99.90
2023-06-10T04:40:10.689Z,99.90
2023-06-10T04:42:38.261Z,99.90
2023-06-10T04:45:07.187Z,99.90
2023-06-10T04:47:35.193Z,99.90
2023-06-10T04:50:03.055Z,99.90
2023-06-10T04:52:30.664Z,99.90
2023-06-10T04:54:59.490Z,99.90
2023-06-10T04:57:27.277Z,99.90
2023-06-10T04:59:54.767Z,99.90
2023-06-10T05:02:22.321Z,99.90
2023-06-10T05:04:49.863Z,99.90
2023-06-10T05:07:17.228Z,99.90
2023-06-10T05:09:44.699Z,99.90
2023-06-10T05:12:12.085Z,99.90
2023-06-10T05:14:39.438Z,99.90
2023-06-10T05:17:07.285Z,99.90
2023-06-10T05:19:36.762Z,99.90
2023-06-10T05:22:04.455Z,99.90
2023-06-10T05:24:31.822Z,99.90
2023-06-10T05:26:59.204Z,99.90
2023-06-10T05:29:26.857Z,99.90
2023-06-10T05:31:54.831Z,99.90
2023-06-10T05:34:22.239Z,99.90
2023-06-10T05:36:49.622Z,99.90
2023-06-10T05:39:16.998Z,99.90
2023-06-10T05:41:44.368Z,99.90
2023-06-10T05:44:14.076Z,99.90
2023-06-10T05:46:41.807Z,99.90
2023-06-10T05:49:09.194Z,99.90
2023-06-10T05:51:38.675Z,99.90
2023-06-10T05:54:06.183Z,99.90
2023-06-10T05:56:33.559Z,99.90
2023-06-10T05:59:00.909Z,99.90
2023-06-10T06:01:28.330Z,99.90
2023-06-10T06:03:56.176Z,99.90
2023-06-10T06:06:24.251Z,99.90
2023-06-10T06:08:51.593Z,99.90
2023-06-10T06:11:19.239Z,99.90
2023-06-10T06:13:46.798Z,99.90
2023-06-10T06:16:14.790Z,99.90
2023-06-10T06:18:42.182Z,99.90
2023-06-10T06:21:09.540Z,99.90
2023-06-10T06:23:36.911Z,99.90
2023-06-10T06:26:05.191Z,99.90
2023-06-10T06:28:33.999Z,99.90
2023-06-10T06:31:01.434Z,99.90
2023-06-10T06:33:28.817Z,99.90
2023-06-10T06:35:56.605Z,99.90
2023-06-10T06:38:23.925Z,99.90
2023-06-10T06:40:51.373Z,99.90
2023-06-10T06:43:19.607Z,99.90
2023-06-10T06:46:17.565Z,99.90
2023-06-10T06:48:45.777Z,99.90
2023-06-10T06:51:13.262Z,99.90
2023-06-10T06:53:45.422Z,99.90
2023-06-10T06:56:13.266Z,99.90
2023-06-10T06:58:40.798Z,99.90
2023-06-10T07:01:08.308Z,99.90
2023-06-10T07:03:37.171Z,99.90
2023-06-10T07:06:04.734Z,99.90
2023-06-10T07:08:32.103Z,99.90
2023-06-10T07:10:59.482Z,99.90
2023-06-10T07:13:26.888Z,99.90
2023-06-10T07:15:54.300Z,99.90
2023-06-10T07:18:21.684Z,99.90
2023-06-10T07:20:49.053Z,99.90
2023-06-10T07:23:16.492Z,99.90
2023-06-10T07:25:43.846Z,99.90
2023-06-10T07:28:11.238Z,99.90
2023-06-10T07:30:38.703Z,99.90
2023-06-10T07:33:08.880Z,99.90
2023-06-10T07:35:36.317Z,99.90
2023-06-10T07:38:03.701Z,99.90
2023-06-10T07:40:33.567Z,99.90
2023-06-10T07:43:02.528Z,99.90
2023-06-10T07:45:29.906Z,99.90
2023-06-10T07:47:57.544Z,99.90
2023-06-10T07:50:25.135Z,99.90
2023-06-10T07:52:52.534Z,99.90
2023-06-10T07:55:19.936Z,99.90
2023-06-10T07:57:47.276Z,99.90
2023-06-10T08:00:14.970Z,99.90
2023-06-10T08:02:42.352Z,99.90
2023-06-10T08:05:09.985Z,99.90
2023-06-10T08:07:37.762Z,99.90
2023-06-10T08:10:06.072Z,99.60
2023-06-10T08:12:34.095Z,99.50
2023-06-10T08:15:01.864Z,99.40
2023-06-10T08:17:29.285Z,99.80
2023-06-10T08:19:56.759Z,99.90
2023-06-10T08:22:24.272Z,99.90
2023-06-10T08:24:51.606Z,99.70
2023-06-10T08:27:19.002Z,99.50
2023-06-10T08:29:46.375Z,99.10
2023-06-10T08:32:13.802Z,99.30
2023-06-10T08:34:41.482Z,98.70
2023-06-10T08:37:08.867Z,98.20
2023-06-10T08:39:36.223Z,97.90
2023-06-10T08:42:17.811Z,97.60
2023-06-10T08:44:45.218Z,97.50
2023-06-10T08:47:16.555Z,97.90
2023-06-10T08:49:47.728Z,97.50
2023-06-10T08:52:19.110Z,97.40
2023-06-10T08:54:49.522Z,97.10
2023-06-10T08:57:16.908Z,97.30
2023-06-10T08:59:44.286Z,97.20
2023-06-10T09:02:11.804Z,97.10
2023-06-10T09:04:39.692Z,97.20
2023-06-10T09:07:07.178Z,97.00
2023-06-10T09:09:34.615Z,96.70
2023-06-10T09:12:01.966Z,95.70
2023-06-10T09:14:29.376Z,95.50
2023-06-10T09:16:59.365Z,95.90
2023-06-10T09:19:26.833Z,95.40
2023-06-10T09:21:54.174Z,95.50
2023-06-10T09:24:25.243Z,95.40
2023-06-10T09:27:09.483Z,96.00
2023-06-10T09:29:53.310Z,95.50
2023-06-10T09:32:21.125Z,95.80
2023-06-10T09:34:48.791Z,95.20
2023-06-10T09:37:21.759Z,94.50
2023-06-10T09:40:09.056Z,94.70
2023-06-10T09:42:38.646Z,94.40
2023-06-10T09:45:06.995Z,94.30
2023-06-10T09:47:34.442Z,94.10
2023-06-10T09:50:02.846Z,93.50
2023-06-10T09:52:30.646Z,93.40
2023-06-10T09:55:02.418Z,93.30
2023-06-10T09:57:34.632Z,93.00
2023-06-10T10:00:06.579Z,93.20
2023-06-10T10:02:49.343Z,92.80
2023-06-10T10:05:17.614Z,92.50
2023-06-10T10:07:45.675Z,92.80
2023-06-10T10:10:14.075Z,92.70
2023-06-10T10:12:41.659Z,93.20
2023-06-10T10:15:10.335Z,93.00
2023-06-10T10:18:04.749Z,92.70
2023-06-10T10:20:33.438Z,91.60
2023-06-10T10:23:00.903Z,91.30
2023-06-10T10:25:35.660Z,90.70
2023-06-10T10:28:11.631Z,90.90
2023-06-10T10:30:44.100Z,90.90
2023-06-10T10:33:14.347Z,90.50
2023-06-10T10:35:41.758Z,89.00
2023-06-10T10:38:09.101Z,89.60
2023-06-10T10:40:36.432Z,90.40
2023-06-10T10:43:03.799Z,87.80
2023-06-10T10:45:31.264Z,87.80
2023-06-10T10:47:58.813Z,88.10
2023-06-10T10:50:27.144Z,86.40
2023-06-10T10:53:02.340Z,85.80
2023-06-10T10:55:30.100Z,85.00
2023-06-10T10:58:07.557Z,83.10
2023-06-10T11:00:36.290Z,82.80
2023-06-10T11:03:05.878Z,83.10
2023-06-10T11:05:40.991Z,83.30
2023-06-10T11:08:09.716Z,83.60
2023-06-10T11:10:41.190Z,79.90
2023-06-10T11:13:14.544Z,83.60
2023-06-10T11:15:51.958Z,82.50
2023-06-10T11:18:26.580Z,83.50
2023-06-10T11:21:05.607Z,79.40
2023-06-10T11:23:40.776Z,78.10
2023-06-10T11:26:27.874Z,84.00
2023-06-10T11:28:55.459Z,80.70
2023-06-10T11:31:26.286Z,83.90
2023-06-10T11:34:05.731Z,80.30
2023-06-10T11:36:34.334Z,81.40
2023-06-10T11:39:06.628Z,83.20
2023-06-10T11:41:35.088Z,83.40
2023-06-10T11:44:10.234Z,80.70
2023-06-10T11:46:38.207Z,81.90
2023-06-10T11:49:06.418Z,82.90
2023-06-10T11:51:38.754Z,80.20
2023-06-10T11:54:06.491Z,78.70
2023-06-10T11:56:33.862Z,78.20
2023-06-10T11:59:06.882Z,78.80
2023-06-10T12:01:35.317Z,79.50
2023-06-10T12:04:10.030Z,78.40
2023-06-10T12:06:41.259Z,78.30
2023-06-10T12:09:24.253Z,78.00
2023-06-10T12:11:58.614Z,78.30
2023-06-10T12:15:00.030Z,76.60
2023-06-10T12:17:34.329Z,76.20
2023-06-10T12:20:02.227Z,73.80
2023-06-10T12:22:40.518Z,76.10
2023-06-10T12:25:09.040Z,73.20
2023-06-10T12:27:37.735Z,72.90
2023-06-10T12:30:07.087Z,72.60
2023-06-10T12:32:45.618Z,72.90
2023-06-10T12:35:19.332Z,72.50
2023-06-10T12:37:57.928Z,71.80
2023-06-10T12:40:29.806Z,72.20
2023-06-10T12:42:57.484Z,70.00
2023-06-10T12:45:31.700Z,68.00
2023-06-10T12:48:10.281Z,67.70
2023-06-10T12:50:40.021Z,68.60
2023-06-10T12:53:07.659Z,69.40
2023-06-10T12:55:35.181Z,69.90
2023-06-10T12:58:02.892Z,70.10
2023-06-10T13:00:35.748Z,70.70
2023-06-10T13:03:03.348Z,70.90
2023-06-10T13:05:31.249Z,70.40
2023-06-10T13:07:59.122Z,71.70
2023-06-10T13:10:26.843Z,76.90
2023-06-10T13:12:55.824Z,75.90
2023-06-10T13:15:23.585Z,77.10
2023-06-10T13:17:51.962Z,78.10
2023-06-10T13:20:20.080Z,79.70
2023-06-10T13:22:48.571Z,80.50
2023-06-10T13:25:16.205Z,80.40
2023-06-10T13:27:46.141Z,82.20
2023-06-10T13:30:13.871Z,82.90
2023-06-10T13:32:42.259Z,82.90
2023-06-10T13:35:10.229Z,81.80
2023-06-10T13:37:38.044Z,81.20
2023-06-10T13:40:06.414Z,80.80
2023-06-10T13:42:33.980Z,81.20
2023-06-10T13:45:01.368Z,79.50
2023-06-10T13:47:29.142Z,79.60
2023-06-10T13:49:56.508Z,77.90
2023-06-10T13:52:23.861Z,76.70
2023-06-10T13:54:51.271Z,77.10
2023-06-10T13:57:18.626Z,77.50
2023-06-10T13:59:46.172Z,77.30
2023-06-10T14:02:13.674Z,76.00
2023-06-10T14:04:41.221Z,75.60
2023-06-10T14:07:08.649Z,75.40
2023-06-10T14:09:36.019Z,73.50
2023-06-10T14:12:04.721Z,74.20
2023-06-10T14:14:34.892Z,75.50
2023-06-10T14:17:02.799Z,75.60
2023-06-10T14:19:30.523Z,74.10
2023-06-10T14:21:57.843Z,74.10
2023-06-10T14:24:25.579Z,74.30
2023-06-10T14:26:52.997Z,73.60
2023-06-10T14:29:20.635Z,73.80
2023-06-10T14:31:48.095Z,74.00
2023-06-10T14:34:15.824Z,74.40
2023-06-10T14:36:43.308Z,73.80
2023-06-10T14:39:10.809Z,72.10
2023-06-10T14:41:38.206Z,72.20
2023-06-10T14:44:05.549Z,74.10
2023-06-10T14:46:33.057Z,74.00
2023-06-10T14:49:00.613Z,72.20
2023-06-10T14:51:28.168Z,73.50
2023-06-10T14:53:55.597Z,73.70
2023-06-10T14:56:23.048Z,74.40
2023-06-10T14:58:50.437Z,74.30
2023-06-10T15:01:17.865Z,74.30
2023-06-10T15:03:45.860Z,73.10
2023-06-10T15:06:13.299Z,72.20
2023-06-10T15:08:43.979Z,71.80
2023-06-10T15:11:12.103Z,72.10
2023-06-10T15:13:39.473Z,74.20
2023-06-10T15:16:07.334Z,74.10
2023-06-10T15:18:34.835Z,73.50
2023-06-10T15:21:02.231Z,75.30
2023-06-10T15:23:29.669Z,75.60
2023-06-10T15:25:57.028Z,74.70
2023-06-10T15:28:26.496Z,74.90
2023-06-10T15:30:57.429Z,75.00
2023-06-10T15:33:24.764Z,74.10
2023-06-10T15:35:53.733Z,74.70
2023-06-10T15:38:21.283Z,74.10
2023-06-10T15:40:48.905Z,72.90
2023-06-10T15:43:16.309Z,72.40
2023-06-10T15:45:43.666Z,72.20
2023-06-10T15:48:11.326Z,70.90
2023-06-10T15:50:39.047Z,71.40
2023-06-10T15:53:06.394Z,71.50
2023-06-10T15:55:33.729Z,70.60
2023-06-10T15:58:01.659Z,72.40
2023-06-10T16:00:29.029Z,72.50
2023-06-10T16:02:56.525Z,72.30
2023-06-10T16:05:24.044Z,72.80
2023-06-10T16:07:51.385Z,74.20
2023-06-10T16:10:18.905Z,75.20
2023-06-10T16:12:46.601Z,77.00
2023-06-10T16:15:14.020Z,78.00
2023-06-10T16:17:41.478Z,78.10
2023-06-10T16:20:09.176Z,78.10
2023-06-10T16:22:36.560Z,78.10
2023-06-10T16:25:04.154Z,78.20
2023-06-10T16:27:31.505Z,78.10
2023-06-10T16:29:58.925Z,78.00
2023-06-10T16:32:26.272Z,78.50
2023-06-10T16:34:53.764Z,78.10
2023-06-10T16:37:21.254Z,77.70
2023-06-10T16:39:48.643Z,77.10
2023-06-10T16:42:15.992Z,77.30
2023-06-10T16:44:43.378Z,76.70
2023-06-10T16:47:11.155Z,77.00
2023-06-10T16:49:39.150Z,76.90
2023-06-10T16:52:06.950Z,77.70
2023-06-10T16:54:34.317Z,77.70
2023-06-10T16:57:02.363Z,77.80
2023-06-10T16:59:29.726Z,78.00
2023-06-10T17:01:57.120Z,78.00
2023-06-10T17:04:24.510Z,77.30
2023-06-10T17:06:52.427Z,77.20
2023-06-10T17:09:21.232Z,77.70
2023-06-10T17:11:48.601Z,78.40
2023-06-10T17:14:16.069Z,79.30
2023-06-10T17:16:43.517Z,80.00
2023-06-10T17:19:11.060Z,80.30
2023-06-10T17:21:38.444Z,80.70
2023-06-10T17:24:06.272Z,80.80
2023-06-10T17:26:33.661Z,80.70
2023-06-10T17:29:02.810Z,80.90
2023-06-10T17:31:31.214Z,81.10
2023-06-10T17:33:58.615Z,81.20
2023-06-10T17:36:25.945Z,82.10
2023-06-10T17:38:53.298Z,83.00
2023-06-10T17:41:20.679Z,83.40
2023-06-10T17:43:48.036Z,84.10
2023-06-10T17:46:15.457Z,84.40
2023-06-10T17:48:42.798Z,84.30
2023-06-10T17:51:11.150Z,84.60
2023-06-10T17:53:38.505Z,85.90
2023-06-10T17:56:05.975Z,86.10
2023-06-10T17:58:33.464Z,86.30
2023-06-10T18:01:00.826Z,86.80
2023-06-10T18:03:28.762Z,87.40
2023-06-10T18:05:56.464Z,88.30
2023-06-10T18:08:23.880Z,88.90
2023-06-10T18:10:51.273Z,89.10
2023-06-10T18:13:18.684Z,89.70
2023-06-10T18:15:46.230Z,90.00
2023-06-10T18:18:13.664Z,90.30
2023-06-10T18:20:41.086Z,90.40
2023-06-10T18:23:08.459Z,90.70
2023-06-10T18:25:35.819Z,90.90
2023-06-10T18:28:03.240Z,91.10
2023-06-10T18:30:31.256Z,91.30
2023-06-10T18:32:58.746Z,91.30
2023-06-10T18:35:26.277Z,91.30
2023-06-10T18:37:53.645Z,91.00
2023-06-10T18:40:21.113Z,90.40
2023-06-10T18:42:48.446Z,90.40
2023-06-10T18:45:16.168Z,90.40
2023-06-10T18:47:57.050Z,90.70
2023-06-10T18:50:25.959Z,90.70
2023-06-10T18:52:53.572Z,90.80
2023-06-10T18:55:20.941Z,91.00
2023-06-10T18:57:48.348Z,91.30
2023-06-10T19:00:16.276Z,91.70
2023-06-10T19:02:43.814Z,92.00
2023-06-10T19:05:13.806Z,92.00
2023-06-10T19:07:41.480Z,92.20
2023-06-10T19:10:09.265Z,92.30
2023-06-10T19:12:36.629Z,92.70
2023-06-10T19:15:04.684Z,92.80
2023-06-10T19:17:32.102Z,93.10
2023-06-10T19:19:59.503Z,93.60
2023-06-10T19:22:26.933Z,93.90
2023-06-10T19:25:05.049Z,94.30
2023-06-10T19:27:32.532Z,94.70
2023-06-10T19:30:00.786Z,95.10
2023-06-10T19:32:28.564Z,95.40
2023-06-10T19:34:56.239Z,95.60
2023-06-10T19:37:23.654Z,95.80
2023-06-10T19:39:51.145Z,96.00
2023-06-10T19:42:18.580Z,96.30
2023-06-10T19:44:46.124Z,96.30
2023-06-10T19:47:13.503Z,96.60
2023-06-10T19:49:40.936Z,96.50
2023-06-10T19:52:08.931Z,96.80
2023-06-10T19:54:36.771Z,97.00
2023-06-10T19:57:04.535Z,97.20
2023-06-10T19:59:33.646Z,97.20
2023-06-10T20:02:01.132Z,97.40
2023-06-10T20:04:28.552Z,97.50
2023-06-10T20:06:56.055Z,97.50
2023-06-10T20:09:23.393Z,97.90
2023-06-10T20:11:50.936Z,98.00
2023-06-10T20:14:18.451Z,98.30
2023-06-10T20:16:46.379Z,98.60
2023-06-10T20:19:13.974Z,98.80
2023-06-10T20:21:41.386Z,98.90
2023-06-10T20:24:09.250Z,99.00
2023-06-10T20:26:36.757Z,98.90
2023-06-10T20:29:04.414Z,99.30
2023-06-10T20:31:31.942Z,99.10
2023-06-10T20:33:59.326Z,99.30
2023-06-10T20:36:27.269Z,99.50
2023-06-10T20:38:55.987Z,99.60
2023-06-10T20:41:23.306Z,99.70
2023-06-10T20:43:50.778Z,99.90
2023-06-10T20:46:18.169Z,99.90
2023-06-10T20:48:45.588Z,99.90
2023-06-10T20:51:13.006Z,99.90
2023-06-10T20:53:40.382Z,99.90
2023-06-10T20:56:08.050Z,99.60
2023-06-10T20:58:35.559Z,99.70
2023-06-10T21:01:02.971Z,99.90
2023-06-10T21:03:30.530Z,99.70
2023-06-10T21:05:57.965Z,99.50
2023-06-10T21:08:27.956Z,99.40
2023-06-10T21:10:55.731Z,99.60
2023-06-10T21:13:23.070Z,99.90
2023-06-10T21:15:50.599Z,99.90
2023-06-10T21:18:18.283Z,99.90
2023-06-10T21:20:45.782Z,99.90
2023-06-10T21:23:13.342Z,99.90
2023-06-10T21:25:41.621Z,99.90
2023-06-10T21:28:09.084Z,99.90
2023-06-10T21:30:36.487Z,99.90
2023-06-10T21:33:04.024Z,99.90
2023-06-10T21:35:31.453Z,99.90
2023-06-10T21:37:58.891Z,99.90
2023-06-10T21:40:26.287Z,99.90
2023-06-10T21:42:53.626Z,99.90
2023-06-10T21:45:20.995Z,99.90
2023-06-10T21:47:48.419Z,99.90
2023-06-10T21:50:15.802Z,99.90
2023-06-10T21:52:43.129Z,99.90
2023-06-10T21:55:11.343Z,99.90
2023-06-10T21:57:38.966Z,99.90
2023-06-10T22:00:12.284Z,99.90
2023-06-10T22:02:43.208Z,99.90
2023-06-10T22:05:10.783Z,99.90
2023-06-10T22:07:38.356Z,99.90
2023-06-10T22:10:06.560Z,99.90
2023-06-10T22:12:33.975Z,99.90
2023-06-10T22:15:01.452Z,99.90
2023-06-10T22:17:28.848Z,99.90
2023-06-10T22:19:56.286Z,99.90
2023-06-10T22:22:23.660Z,99.90
2023-06-10T22:24:57.306Z,99.90
2023-06-10T22:27:24.683Z,99.90
2023-06-10T22:29:52.124Z,99.90
2023-06-10T22:32:19.477Z,99.90
2023-06-10T22:34:47.104Z,99.90
2023-06-10T22:37:14.617Z,99.90
2023-06-10T22:39:41.996Z,99.90
2023-06-10T22:42:10.062Z,99.90
2023-06-10T22:44:37.669Z,99.90
2023-06-10T22:47:05.422Z,99.90
2023-06-10T22:49:32.786Z,99.90
2023-06-10T22:52:00.140Z,99.90
2023-06-10T22:54:28.333Z,99.90
2023-06-10T22:56:55.733Z,99.90
2023-06-10T22:59:23.146Z,99.90
2023-06-10T23:01:50.555Z,99.90
2023-06-10T23:04:17.921Z,99.90
2023-06-10T23:06:46.177Z,99.90
2023-06-10T23:09:14.374Z,99.90
2023-06-10T23:11:42.476Z,99.90
2023-06-10T23:14:10.484Z,99.90
2023-06-10T23:16:46.634Z,99.90
2023-06-10T23:19:19.177Z,99.90
2023-06-10T23:21:54.139Z,99.90
2023-06-10T23:24:28.526Z,99.90
2023-06-10T23:26:56.962Z,99.90
2023-06-10T23:29:24.770Z,99.90
2023-06-10T23:31:52.502Z,99.90
2023-06-10T23:34:20.471Z,99.90
2023-06-10T23:36:47.941Z,99.90
2023-06-10T23:39:15.580Z,99.90
2023-06-10T23:41:43.709Z,99.90
2023-06-10T23:44:14.160Z,99.90
2023-06-10T23:46:41.640Z,99.90
2023-06-10T23:49:10.133Z,99.90
2023-06-10T23:51:38.386Z,99.90
2023-06-10T23:54:06.846Z,99.90
2023-06-10T23:56:34.226Z,99.90
2023-06-10T23:59:01.601Z,99.90
